sensor_id;sensor_type;location;lat;lon;timestamp;pressure;altitude;pressure_sealevel;temperature;humidity
65227;BME280;51805;49.012;12.104;2022-09-17T00:01:25;97149.03;;;20.11;53.00
65227;BME280;51805;49.012;12.104;2022-09-17T00:03:52;97155.16;;;20.21;53.12
65227;BME280;51805;49.012;12.104;2022-09-17T00:06:18;97164.00;;;20.27;53.28
65227;BME280;51805;49.012;12.104;2022-09-17T00:08:43;97169.91;;;20.34;52.99
65227;BME280;51805;49.012;12.104;2022-09-17T00:11:15;97191.63;;;20.47;53.17
65227;BME280;51805;49.012;12.104;2022-09-17T00:13:42;97177.69;;;20.35;53.00
65227;BME280;51805;49.012;12.104;2022-09-17T00:16:08;97208.06;;;20.51;53.02
65227;BME280;51805;49.012;12.104;2022-09-17T00:18:33;97175.81;;;20.36;53.00
65227;BME280;51805;49.012;12.104;2022-09-17T00:20:59;97157.00;;;20.26;52.86
65227;BME280;51805;49.012;12.104;2022-09-17T00:23:24;97157.28;;;20.24;52.82
65227;BME280;51805;49.012;12.104;2022-09-17T00:25:49;97183.34;;;20.39;52.96
65227;BME280;51805;49.012;12.104;2022-09-17T00:28:15;97205.13;;;20.47;52.97
65227;BME280;51805;49.012;12.104;2022-09-17T00:30:42;97171.59;;;20.25;53.00
65227;BME280;51805;49.012;12.104;2022-09-17T00:33:10;97209.66;;;20.52;52.73
65227;BME280;51805;49.012;12.104;2022-09-17T00:35:36;97213.47;;;20.51;52.81
65227;BME280;51805;49.012;12.104;2022-09-17T00:38:02;97208.84;;;20.51;52.83
65227;BME280;51805;49.012;12.104;2022-09-17T00:40:27;97207.00;;;20.47;52.95
65227;BME280;51805;49.012;12.104;2022-09-17T00:42:52;97221.28;;;20.52;53.05
65227;BME280;51805;49.012;12.104;2022-09-17T00:45:18;97211.91;;;20.45;52.98
65227;BME280;51805;49.012;12.104;2022-09-17T00:48:01;97225.84;;;20.52;53.07
65227;BME280;51805;49.012;12.104;2022-09-17T00:50:37;97208.31;;;20.54;53.05
65227;BME280;51805;49.012;12.104;2022-09-17T00:53:18;97202.41;;;20.47;52.98
65227;BME280;51805;49.012;12.104;2022-09-17T00:55:54;97212.41;;;20.47;52.88
65227;BME280;51805;49.012;12.104;2022-09-17T00:58:21;97222.63;;;20.50;52.91
65227;BME280;51805;49.012;12.104;2022-09-17T01:00:47;97221.84;;;20.49;52.96
65227;BME280;51805;49.012;12.104;2022-09-17T01:03:13;97227.19;;;20.54;52.84
65227;BME280;51805;49.012;12.104;2022-09-17T01:14:18;97233.41;;;20.50;53.14
65227;BME280;51805;49.012;12.104;2022-09-17T01:16:56;97232.06;;;20.52;52.98
65227;BME280;51805;49.012;12.104;2022-09-17T01:19:33;97233.13;;;20.51;52.76
65227;BME280;51805;49.012;12.104;2022-09-17T01:22:09;97218.34;;;20.44;52.59
65227;BME280;51805;49.012;12.104;2022-09-17T01:28:07;97218.34;;;20.44;52.63
65227;BME280;51805;49.012;12.104;2022-09-17T01:30:53;97224.03;;;20.42;52.73
65227;BME280;51805;49.012;12.104;2022-09-17T01:39:33;97246.63;;;20.51;52.53
65227;BME280;51805;49.012;12.104;2022-09-17T01:42:29;97252.03;;;20.51;52.57
65227;BME280;51805;49.012;12.104;2022-09-17T01:45:32;97249.63;;;20.50;52.35
65227;BME280;51805;49.012;12.104;2022-09-17T01:48:08;97238.63;;;20.41;52.45
65227;BME280;51805;49.012;12.104;2022-09-17T01:51:05;97223.94;;;20.24;52.60
65227;BME280;51805;49.012;12.104;2022-09-17T01:53:48;97245.88;;;20.46;52.47
65227;BME280;51805;49.012;12.104;2022-09-17T01:56:17;97244.31;;;20.40;52.50
65227;BME280;51805;49.012;12.104;2022-09-17T01:58:50;97222.22;;;20.33;52.45
65227;BME280;51805;49.012;12.104;2022-09-17T02:01:19;97217.94;;;20.32;52.21
65227;BME280;51805;49.012;12.104;2022-09-17T02:03:58;97252.31;;;20.50;52.38
65227;BME280;51805;49.012;12.104;2022-09-17T02:06:28;97238.09;;;20.39;52.56
65227;BME280;51805;49.012;12.104;2022-09-17T02:09:00;97207.28;;;20.17;52.36
65227;BME280;51805;49.012;12.104;2022-09-17T02:11:28;97241.34;;;20.41;52.35
65227;BME280;51805;49.012;12.104;2022-09-17T02:14:12;97240.53;;;20.41;52.25
65227;BME280;51805;49.012;12.104;2022-09-17T02:16:45;97220.34;;;20.33;52.44
65227;BME280;51805;49.012;12.104;2022-09-17T02:19:27;97238.91;;;20.40;52.25
65227;BME280;51805;49.012;12.104;2022-09-17T02:24:41;97238.88;;;20.45;52.32
65227;BME280;51805;49.012;12.104;2022-09-17T02:27:20;97239.94;;;20.44;52.09
65227;BME280;51805;49.012;12.104;2022-09-17T02:29:48;97234.56;;;20.44;52.31
65227;BME280;51805;49.012;12.104;2022-09-17T02:32:14;97234.00;;;20.47;51.94
65227;BME280;51805;49.012;12.104;2022-09-17T02:34:39;97207.94;;;20.32;52.15
65227;BME280;51805;49.012;12.104;2022-09-17T02:37:05;97190.22;;;20.21;52.07
65227;BME280;51805;49.012;12.104;2022-09-17T02:39:31;97214.09;;;20.38;52.26
65227;BME280;51805;49.012;12.104;2022-09-17T02:44:48;97200.63;;;20.33;52.19
65227;BME280;51805;49.012;12.104;2022-09-17T02:52:57;97205.41;;;20.46;52.08
65227;BME280;51805;49.012;12.104;2022-09-17T02:55:52;97197.91;;;20.38;52.27
65227;BME280;51805;49.012;12.104;2022-09-17T02:58:27;97202.69;;;20.46;52.10
65227;BME280;51805;49.012;12.104;2022-09-17T03:00:58;97204.88;;;20.44;52.12
65227;BME280;51805;49.012;12.104;2022-09-17T03:03:47;97196.56;;;20.40;52.07
65227;BME280;51805;49.012;12.104;2022-09-17T03:06:13;97177.56;;;20.22;51.97
65227;BME280;51805;49.012;12.104;2022-09-17T03:08:41;97178.03;;;20.29;51.94
65227;BME280;51805;49.012;12.104;2022-09-17T03:11:09;97174.78;;;20.27;51.98
65227;BME280;51805;49.012;12.104;2022-09-17T03:13:35;97156.84;;;20.12;52.07
65227;BME280;51805;49.012;12.104;2022-09-17T03:16:04;97172.16;;;20.22;51.94
65227;BME280;51805;49.012;12.104;2022-09-17T03:18:30;97198.41;;;20.45;51.97
65227;BME280;51805;49.012;12.104;2022-09-17T03:20:55;97181.72;;;20.38;52.16
65227;BME280;51805;49.012;12.104;2022-09-17T03:23:21;97195.47;;;20.41;51.97
65227;BME280;51805;49.012;12.104;2022-09-17T03:25:46;97187.66;;;20.40;51.82
65227;BME280;51805;49.012;12.104;2022-09-17T03:28:12;97193.31;;;20.38;51.99
65227;BME280;51805;49.012;12.104;2022-09-17T03:30:37;97179.63;;;20.30;51.79
65227;BME280;51805;49.012;12.104;2022-09-17T03:33:02;97176.44;;;20.28;51.94
65227;BME280;51805;49.012;12.104;2022-09-17T03:35:28;97179.59;;;20.35;51.90
65227;BME280;51805;49.012;12.104;2022-09-17T03:37:53;97165.63;;;20.28;52.71
65227;BME280;51805;49.012;12.104;2022-09-17T03:40:18;97162.97;;;20.23;52.98
65227;BME280;51805;49.012;12.104;2022-09-17T03:42:44;97189.53;;;20.39;53.27
65227;BME280;51805;49.012;12.104;2022-09-17T03:45:09;97195.69;;;20.45;53.75
65227;BME280;51805;49.012;12.104;2022-09-17T03:47:35;97192.94;;;20.50;53.51
65227;BME280;51805;49.012;12.104;2022-09-17T03:50:01;97175.81;;;20.36;53.86
65227;BME280;51805;49.012;12.104;2022-09-17T03:52:26;97167.19;;;20.34;53.57
65227;BME280;51805;49.012;12.104;2022-09-17T03:54:52;97148.06;;;20.30;53.85
65227;BME280;51805;49.012;12.104;2022-09-17T03:57:17;97176.53;;;20.46;54.09
65227;BME280;51805;49.012;12.104;2022-09-17T03:59:42;97168.22;;;20.38;55.04
65227;BME280;51805;49.012;12.104;2022-09-17T04:02:08;97170.34;;;20.41;54.20
65227;BME280;51805;49.012;12.104;2022-09-17T04:04:33;97182.94;;;20.50;54.72
65227;BME280;51805;49.012;12.104;2022-09-17T04:06:58;97168.19;;;20.43;55.86
65227;BME280;51805;49.012;12.104;2022-09-17T04:09:24;97158.50;;;20.42;55.38
65227;BME280;51805;49.012;12.104;2022-09-17T04:11:49;97166.50;;;20.47;55.53
65227;BME280;51805;49.012;12.104;2022-09-17T04:14:14;97164.94;;;20.41;55.61
65227;BME280;51805;49.012;12.104;2022-09-17T04:16:39;97167.09;;;20.44;55.93
65227;BME280;51805;49.012;12.104;2022-09-17T04:19:05;97165.19;;;20.44;55.71
65227;BME280;51805;49.012;12.104;2022-09-17T04:21:30;97170.03;;;20.47;56.32
65227;BME280;51805;49.012;12.104;2022-09-17T04:23:55;97175.97;;;20.49;55.74
65227;BME280;51805;49.012;12.104;2022-09-17T04:26:21;97172.56;;;20.39;55.97
65227;BME280;51805;49.012;12.104;2022-09-17T04:28:46;97170.84;;;20.48;55.62
65227;BME280;51805;49.012;12.104;2022-09-17T04:31:11;97176.53;;;20.46;55.76
65227;BME280;51805;49.012;12.104;2022-09-17T04:33:37;97153.94;;;20.37;55.82
65227;BME280;51805;49.012;12.104;2022-09-17T04:36:03;97163.34;;;20.40;55.94
65227;BME280;51805;49.012;12.104;2022-09-17T04:38:28;97179.44;;;20.50;55.13
65227;BME280;51805;49.012;12.104;2022-09-17T04:40:53;97140.25;;;20.29;55.19
65227;BME280;51805;49.012;12.104;2022-09-17T04:43:19;97181.06;;;20.51;55.31
65227;BME280;51805;49.012;12.104;2022-09-17T04:45:47;97174.59;;;20.47;55.40
65227;BME280;51805;49.012;12.104;2022-09-17T04:48:13;97181.34;;;20.49;55.18
65227;BME280;51805;49.012;12.104;2022-09-17T04:50:38;97187.25;;;20.51;55.83
65227;BME280;51805;49.012;12.104;2022-09-17T04:53:03;97155.84;;;20.37;55.43
65227;BME280;51805;49.012;12.104;2022-09-17T04:55:29;97164.09;;;20.45;55.88
65227;BME280;51805;49.012;12.104;2022-09-17T04:57:54;97175.09;;;20.54;56.53
65227;BME280;51805;49.012;12.104;2022-09-17T05:00:21;97152.03;;;20.38;55.99
65227;BME280;51805;49.012;12.104;2022-09-17T05:02:48;97168.19;;;20.43;56.03
65227;BME280;51805;49.012;12.104;2022-09-17T05:05:14;97182.91;;;20.55;55.93
65227;BME280;51805;49.012;12.104;2022-09-17T05:07:41;97168.66;;;20.50;55.73
65227;BME280;51805;49.012;12.104;2022-09-17T05:10:07;97177.31;;;20.47;55.85
65227;BME280;51805;49.012;12.104;2022-09-17T05:12:33;97188.06;;;20.52;55.55
65227;BME280;51805;49.012;12.104;2022-09-17T05:14:58;97191.28;;;20.54;55.59
65227;BME280;51805;49.012;12.104;2022-09-17T05:17:24;97180.00;;;20.47;55.36
65227;BME280;51805;49.012;12.104;2022-09-17T05:19:49;97194.00;;;20.54;55.01
65227;BME280;51805;49.012;12.104;2022-09-17T05:22:15;97189.19;;;20.46;54.63
65227;BME280;51805;49.012;12.104;2022-09-17T05:24:41;97186.22;;;20.47;54.42
65227;BME280;51805;49.012;12.104;2022-09-17T05:27:07;97204.25;;;20.52;54.06
65227;BME280;51805;49.012;12.104;2022-09-17T05:29:32;97184.66;;;20.41;53.84
65227;BME280;51805;49.012;12.104;2022-09-17T05:31:58;97212.97;;;20.44;53.60
65227;BME280;51805;49.012;12.104;2022-09-17T05:34:23;97220.22;;;20.48;53.53
65227;BME280;51805;49.012;12.104;2022-09-17T05:36:48;97224.31;;;20.41;53.27
65227;BME280;51805;49.012;12.104;2022-09-17T05:39:14;97242.63;;;20.49;53.09
65227;BME280;51805;49.012;12.104;2022-09-17T05:41:39;97241.09;;;20.38;53.03
65227;BME280;51805;49.012;12.104;2022-09-17T05:44:04;97249.13;;;20.48;52.75
65227;BME280;51805;49.012;12.104;2022-09-17T05:46:30;97236.25;;;20.35;52.61
65227;BME280;51805;49.012;12.104;2022-09-17T05:48:55;97273.41;;;20.48;51.85
65227;BME280;51805;49.012;12.104;2022-09-17T05:51:21;97246.00;;;20.31;52.28
65227;BME280;51805;49.012;12.104;2022-09-17T05:53:46;97231.53;;;20.12;51.80
65227;BME280;51805;49.012;12.104;2022-09-17T05:56:11;97290.16;;;20.45;51.79
65227;BME280;51805;49.012;12.104;2022-09-17T05:58:36;97298.53;;;20.43;51.66
65227;BME280;51805;49.012;12.104;2022-09-17T06:01:02;97302.09;;;20.39;51.57
65227;BME280;51805;49.012;12.104;2022-09-17T06:03:28;97317.16;;;20.45;51.09
65227;BME280;51805;49.012;12.104;2022-09-17T06:05:55;97312.91;;;20.34;51.11
65227;BME280;51805;49.012;12.104;2022-09-17T06:08:21;97319.31;;;20.43;50.92
65227;BME280;51805;49.012;12.104;2022-09-17T06:10:47;97322.03;;;20.38;50.51
65227;BME280;51805;49.012;12.104;2022-09-17T06:13:12;97321.00;;;20.34;50.52
65227;BME280;51805;49.012;12.104;2022-09-17T06:15:37;97333.94;;;20.37;50.37
65227;BME280;51805;49.012;12.104;2022-09-17T06:18:03;97329.63;;;20.36;50.44
65227;BME280;51805;49.012;12.104;2022-09-17T06:20:28;97336.63;;;20.37;49.91
65227;BME280;51805;49.012;12.104;2022-09-17T06:22:57;97321.53;;;20.36;50.12
65227;BME280;51805;49.012;12.104;2022-09-17T06:25:23;97320.47;;;20.32;50.00
65227;BME280;51805;49.012;12.104;2022-09-17T06:27:48;97325.56;;;20.38;49.71
65227;BME280;51805;49.012;12.104;2022-09-17T06:30:13;97318.84;;;20.36;49.65
65227;BME280;51805;49.012;12.104;2022-09-17T06:32:39;97295.19;;;20.18;49.32
65227;BME280;51805;49.012;12.104;2022-09-17T06:35:04;97312.38;;;20.32;49.36
65227;BME280;51805;49.012;12.104;2022-09-17T06:37:31;97291.44;;;20.19;49.28
65227;BME280;51805;49.012;12.104;2022-09-17T06:39:56;97289.50;;;20.24;49.29
65227;BME280;51805;49.012;12.104;2022-09-17T06:42:22;97303.19;;;20.33;49.19
65227;BME280;51805;49.012;12.104;2022-09-17T06:44:47;97281.69;;;20.23;49.29
65227;BME280;51805;49.012;12.104;2022-09-17T06:47:13;97302.66;;;20.36;49.12
65227;BME280;51805;49.012;12.104;2022-09-17T06:49:38;97302.66;;;20.36;48.90
65227;BME280;51805;49.012;12.104;2022-09-17T06:52:03;97299.41;;;20.34;49.18
65227;BME280;51805;49.012;12.104;2022-09-17T06:54:29;97309.66;;;20.37;49.22
65227;BME280;51805;49.012;12.104;2022-09-17T06:56:54;97291.34;;;20.29;49.04
65227;BME280;51805;49.012;12.104;2022-09-17T06:59:19;97302.66;;;20.36;49.40
65227;BME280;51805;49.012;12.104;2022-09-17T07:01:46;97304.50;;;20.40;48.96
65227;BME280;51805;49.012;12.104;2022-09-17T07:04:11;97291.84;;;20.36;49.25
65227;BME280;51805;49.012;12.104;2022-09-17T07:06:37;97286.19;;;20.32;48.76
65227;BME280;51805;49.012;12.104;2022-09-17T07:09:02;97281.13;;;20.26;49.50
65227;BME280;51805;49.012;12.104;2022-09-17T07:11:29;97299.59;;;20.42;48.80
65227;BME280;51805;49.012;12.104;2022-09-17T07:13:54;97282.97;;;20.30;48.85
65227;BME280;51805;49.012;12.104;2022-09-17T07:16:19;97285.91;;;20.34;49.01
65227;BME280;51805;49.012;12.104;2022-09-17T07:18:45;97252.03;;;20.13;49.05
65227;BME280;51805;49.012;12.104;2022-09-17T07:21:10;97281.66;;;20.28;49.40
65227;BME280;51805;49.012;12.104;2022-09-17T07:23:36;97252.59;;;20.15;49.09
65227;BME280;51805;49.012;12.104;2022-09-17T07:26:06;97277.81;;;20.34;49.04
65227;BME280;51805;49.012;12.104;2022-09-17T07:28:32;97280.56;;;20.29;48.80
65227;BME280;51805;49.012;12.104;2022-09-17T07:31:03;97282.91;;;20.40;49.31
65227;BME280;51805;49.012;12.104;2022-09-17T07:33:31;97280.25;;;20.35;49.14
65227;BME280;51805;49.012;12.104;2022-09-17T07:36:02;97304.16;;;20.47;49.01
65227;BME280;51805;49.012;12.104;2022-09-17T07:38:28;97293.94;;;20.44;49.00
65227;BME280;51805;49.012;12.104;2022-09-17T07:40:58;97288.59;;;20.39;48.99
65227;BME280;51805;49.012;12.104;2022-09-17T07:43:31;97298.84;;;20.37;48.67
65227;BME280;51805;49.012;12.104;2022-09-17T07:45:58;97299.38;;;20.39;48.73
65227;BME280;51805;49.012;12.104;2022-09-17T07:48:24;97290.22;;;20.35;48.91
65227;BME280;51805;49.012;12.104;2022-09-17T07:50:49;97298.28;;;20.40;48.98
65227;BME280;51805;49.012;12.104;2022-09-17T07:53:17;97304.69;;;20.49;48.99
65227;BME280;51805;49.012;12.104;2022-09-17T07:58:22;97309.56;;;20.47;48.56
65227;BME280;51805;49.012;12.104;2022-09-17T08:00:48;97293.50;;;20.27;48.33
65227;BME280;51805;49.012;12.104;2022-09-17T08:03:13;97298.31;;;20.35;48.85
65227;BME280;51805;49.012;12.104;2022-09-17T08:05:39;97310.69;;;20.41;48.97
65227;BME280;51805;49.012;12.104;2022-09-17T08:08:04;97298.34;;;20.30;48.99
65227;BME280;51805;49.012;12.104;2022-09-17T08:10:29;97322.50;;;20.50;48.67
65227;BME280;51805;49.012;12.104;2022-09-17T08:12:58;97299.38;;;20.39;48.78
65227;BME280;51805;49.012;12.104;2022-09-17T08:15:24;97288.66;;;20.29;48.65
65227;BME280;51805;49.012;12.104;2022-09-17T08:17:50;97319.84;;;20.45;48.71
65227;BME280;51805;49.012;12.104;2022-09-17T08:20:15;97308.53;;;20.38;48.61
65227;BME280;51805;49.012;12.104;2022-09-17T08:22:41;97289.75;;;20.28;48.57
65227;BME280;51805;49.012;12.104;2022-09-17T08:25:08;97294.00;;;20.34;48.73
65227;BME280;51805;49.012;12.104;2022-09-17T08:27:35;97319.28;;;20.48;48.94
65227;BME280;51805;49.012;12.104;2022-09-17T08:30:00;97304.72;;;20.44;48.29
65227;BME280;51805;49.012;12.104;2022-09-17T08:32:28;97282.16;;;20.30;48.45
65227;BME280;51805;49.012;12.104;2022-09-17T08:34:54;97309.91;;;20.40;48.57
65227;BME280;51805;49.012;12.104;2022-09-17T08:37:19;97310.13;;;20.44;48.36
65227;BME280;51805;49.012;12.104;2022-09-17T08:39:45;97289.44;;;20.34;48.40
65227;BME280;51805;49.012;12.104;2022-09-17T08:42:35;97317.63;;;20.52;48.46
65227;BME280;51805;49.012;12.104;2022-09-17T08:45:03;97310.09;;;20.49;48.37
65227;BME280;51805;49.012;12.104;2022-09-17T08:47:33;97319.75;;;20.55;48.55
65227;BME280;51805;49.012;12.104;2022-09-17T08:50:05;97282.13;;;20.35;48.32
65227;BME280;51805;49.012;12.104;2022-09-17T08:55:13;97327.84;;;20.55;48.43
65227;BME280;51805;49.012;12.104;2022-09-17T08:57:45;97323.56;;;20.54;48.31
65227;BME280;51805;49.012;12.104;2022-09-17T09:00:17;97313.09;;;20.42;48.56
65227;BME280;51805;49.012;12.104;2022-09-17T09:05:46;97337.34;;;20.52;48.36
65227;BME280;51805;49.012;12.104;2022-09-17T09:08:21;97344.63;;;20.52;48.35
65227;BME280;51805;49.012;12.104;2022-09-17T09:10:52;97317.72;;;20.42;48.45
65227;BME280;51805;49.012;12.104;2022-09-17T09:13:21;97336.53;;;20.47;48.30
65227;BME280;51805;49.012;12.104;2022-09-17T09:15:57;97317.75;;;20.37;48.12
65227;BME280;51805;49.012;12.104;2022-09-17T09:18:34;97332.53;;;20.44;48.49
65227;BME280;51805;49.012;12.104;2022-09-17T09:21:25;97343.00;;;20.51;48.35
65227;BME280;51805;49.012;12.104;2022-09-17T09:23:56;97345.19;;;20.49;48.23
65227;BME280;51805;49.012;12.104;2022-09-17T09:26:45;97343.56;;;20.48;48.32
65227;BME280;51805;49.012;12.104;2022-09-17T09:34:29;97338.19;;;20.48;48.06
65227;BME280;51805;49.012;12.104;2022-09-17T09:39:42;97338.22;;;20.38;48.31
65227;BME280;51805;49.012;12.104;2022-09-17T09:42:31;97360.25;;;20.55;48.20
65227;BME280;51805;49.012;12.104;2022-09-17T09:45:10;97354.09;;;20.49;48.24
65227;BME280;51805;49.012;12.104;2022-09-17T09:47:53;97360.25;;;20.55;48.08
65227;BME280;51805;49.012;12.104;2022-09-17T09:58:43;97349.53;;;20.45;48.21
65227;BME280;51805;49.012;12.104;2022-09-17T10:01:17;97356.50;;;20.51;48.09
65227;BME280;51805;49.012;12.104;2022-09-17T10:03:43;97360.81;;;20.52;48.28
65227;BME280;51805;49.012;12.104;2022-09-17T10:06:09;97326.41;;;20.29;48.21
65227;BME280;51805;49.012;12.104;2022-09-17T10:08:40;97367.81;;;20.53;48.06
65227;BME280;51805;49.012;12.104;2022-09-17T10:13:37;97353.31;;;20.44;48.02
65227;BME280;51805;49.012;12.104;2022-09-17T10:16:23;97376.72;;;20.53;48.12
65227;BME280;51805;49.012;12.104;2022-09-17T10:21:36;97374.84;;;20.54;48.43
65227;BME280;51805;49.012;12.104;2022-09-17T10:24:04;97377.56;;;20.49;48.20
65227;BME280;51805;49.012;12.104;2022-09-17T10:26:36;97366.84;;;20.39;48.54
65227;BME280;51805;49.012;12.104;2022-09-17T10:29:05;97369.00;;;20.37;48.37
65227;BME280;51805;49.012;12.104;2022-09-17T10:31:49;97382.16;;;20.48;48.28
65227;BME280;51805;49.012;12.104;2022-09-17T10:34:26;97384.06;;;20.48;48.16
65227;BME280;51805;49.012;12.104;2022-09-17T10:36:52;97387.81;;;20.52;48.15
65227;BME280;51805;49.012;12.104;2022-09-17T10:41:56;97371.91;;;20.45;47.94
65227;BME280;51805;49.012;12.104;2022-09-17T10:44:24;97385.09;;;20.52;48.40
65227;BME280;51805;49.012;12.104;2022-09-17T10:46:53;97377.00;;;20.52;48.55
65227;BME280;51805;49.012;12.104;2022-09-17T10:55:05;97376.38;;;20.65;48.19
65227;BME280;51805;49.012;12.104;2022-09-17T10:58:06;97379.31;;;20.68;48.25
65227;BME280;51805;49.012;12.104;2022-09-17T11:06:24;97360.69;;;20.67;48.13
65227;BME280;51805;49.012;12.104;2022-09-17T11:09:04;97370.91;;;20.75;47.86
65227;BME280;51805;49.012;12.104;2022-09-17T11:17:08;97355.25;;;20.72;48.00
65227;BME280;51805;49.012;12.104;2022-09-17T11:19:56;97349.41;;;20.65;48.01
65227;BME280;51805;49.012;12.104;2022-09-17T11:22:55;97371.97;;;20.79;47.88
65227;BME280;51805;49.012;12.104;2022-09-17T11:25:37;97361.16;;;20.79;47.76
65227;BME280;51805;49.012;12.104;2022-09-17T11:36:49;97352.53;;;20.77;47.90
65227;BME280;51805;49.012;12.104;2022-09-17T11:39:46;97348.72;;;20.78;47.76
65227;BME280;51805;49.012;12.104;2022-09-17T11:42:17;97329.38;;;20.71;47.79
65227;BME280;51805;49.012;12.104;2022-09-17T11:45:05;97334.19;;;20.74;47.44
65227;BME280;51805;49.012;12.104;2022-09-17T11:47:48;97319.41;;;20.66;47.55
65227;BME280;51805;49.012;12.104;2022-09-17T11:52:45;97335.47;;;20.81;47.63
65227;BME280;51805;49.012;12.104;2022-09-17T11:55:25;97330.38;;;20.80;47.65
65227;BME280;51805;49.012;12.104;2022-09-17T11:57:59;97328.69;;;20.84;47.65
65227;BME280;51805;49.012;12.104;2022-09-17T12:00:27;97314.16;;;20.80;47.67
65227;BME280;51805;49.012;12.104;2022-09-17T12:02:57;97323.00;;;20.85;47.45
65227;BME280;51805;49.012;12.104;2022-09-17T12:05:48;97292.69;;;20.65;47.62
65227;BME280;51805;49.012;12.104;2022-09-17T12:11:19;97307.38;;;20.82;46.95
65227;BME280;51805;49.012;12.104;2022-09-17T12:13:49;97315.69;;;20.91;47.27
65227;BME280;51805;49.012;12.104;2022-09-17T12:16:25;97305.94;;;20.90;46.65
65227;BME280;51805;49.012;12.104;2022-09-17T12:21:53;97301.66;;;20.89;47.05
65227;BME280;51805;49.012;12.104;2022-09-17T12:24:24;97301.13;;;20.87;47.21
65227;BME280;51805;49.012;12.104;2022-09-17T12:41:52;97284.88;;;20.92;46.97
65227;BME280;51805;49.012;12.104;2022-09-17T12:56:05;97274.34;;;20.95;46.67
65227;BME280;51805;49.012;12.104;2022-09-17T12:58:55;97261.38;;;20.97;46.38
65227;BME280;51805;49.012;12.104;2022-09-17T13:01:27;97260.00;;;21.00;46.43
65227;BME280;51805;49.012;12.104;2022-09-17T13:03:58;97244.88;;;20.99;46.62
65227;BME280;51805;49.012;12.104;2022-09-17T13:12:23;97252.41;;;21.02;46.53
65227;BME280;51805;49.012;12.104;2022-09-17T13:20:32;97246.34;;;21.10;46.33
65227;BME280;51805;49.012;12.104;2022-09-17T13:23:02;97249.06;;;21.10;46.12
65227;BME280;51805;49.012;12.104;2022-09-17T13:25:29;97259.38;;;21.08;45.98
65227;BME280;51805;49.012;12.104;2022-09-17T13:28:07;97248.78;;;21.11;45.74
65227;BME280;51805;49.012;12.104;2022-09-17T13:30:58;97260.00;;;21.23;45.69
65227;BME280;51805;49.012;12.104;2022-09-17T13:33:47;97257.13;;;21.15;45.74
65227;BME280;51805;49.012;12.104;2022-09-17T13:38:57;97238.13;;;20.96;46.05
65227;BME280;51805;49.012;12.104;2022-09-17T13:41:24;97227.06;;;20.93;45.68
65227;BME280;51805;49.012;12.104;2022-09-17T13:43:51;97238.03;;;21.06;45.47
65227;BME280;51805;49.012;12.104;2022-09-17T13:46:21;97261.16;;;21.17;45.70
65227;BME280;51805;49.012;12.104;2022-09-17T13:48:47;97246.03;;;21.16;45.67
65227;BME280;51805;49.012;12.104;2022-09-17T13:51:43;97238.63;;;21.03;45.37
65227;BME280;51805;49.012;12.104;2022-09-17T13:54:09;97236.38;;;21.10;45.65
65227;BME280;51805;49.012;12.104;2022-09-17T13:56:37;97137.88;;;20.51;45.38
65227;BME280;51805;49.012;12.104;2022-09-17T13:59:10;97231.34;;;21.22;45.17
65227;BME280;51805;49.012;12.104;2022-09-17T14:07:31;97226.19;;;21.26;44.54
65227;BME280;51805;49.012;12.104;2022-09-17T14:09:58;97255.16;;;21.44;44.55
65227;BME280;51805;49.012;12.104;2022-09-17T14:15:32;97262.53;;;21.38;44.74
65227;BME280;51805;49.012;12.104;2022-09-17T14:17:57;97257.13;;;21.38;44.90
65227;BME280;51805;49.012;12.104;2022-09-17T14:20:23;97243.91;;;21.37;45.35
65227;BME280;51805;49.012;12.104;2022-09-17T14:23:09;97207.63;;;20.96;44.65
65227;BME280;51805;49.012;12.104;2022-09-17T14:25:41;97231.81;;;21.06;44.82
65227;BME280;51805;49.012;12.104;2022-09-17T14:28:23;97265.19;;;21.20;45.19
65227;BME280;51805;49.012;12.104;2022-09-17T14:30:54;97259.28;;;21.13;45.02
65227;BME280;51805;49.012;12.104;2022-09-17T14:33:26;97256.88;;;21.11;45.14
65227;BME280;51805;49.012;12.104;2022-09-17T14:35:59;97220.06;;;20.92;45.10
65227;BME280;51805;49.012;12.104;2022-09-17T14:38:31;97258.50;;;21.12;45.11
65227;BME280;51805;49.012;12.104;2022-09-17T14:41:21;97250.22;;;21.04;45.25
65227;BME280;51805;49.012;12.104;2022-09-17T14:48:52;97235.16;;;20.93;44.74
65227;BME280;51805;49.012;12.104;2022-09-17T14:54:05;97264.03;;;21.26;44.59
65227;BME280;51805;49.012;12.104;2022-09-17T14:56:31;97252.34;;;21.07;44.60
65227;BME280;51805;49.012;12.104;2022-09-17T14:58:59;97277.66;;;21.16;44.83
65227;BME280;51805;49.012;12.104;2022-09-17T15:01:27;97262.84;;;21.08;44.70
65227;BME280;51805;49.012;12.104;2022-09-17T15:06:41;97274.59;;;20.99;44.51
65227;BME280;51805;49.012;12.104;2022-09-17T15:09:25;97266.81;;;20.87;44.89
65227;BME280;51805;49.012;12.104;2022-09-17T15:11:53;97294.06;;;20.96;44.59
65227;BME280;51805;49.012;12.104;2022-09-17T15:14:22;97317.56;;;20.95;44.80
65227;BME280;51805;49.012;12.104;2022-09-17T15:16:52;97342.69;;;20.91;44.88
65227;BME280;51805;49.012;12.104;2022-09-17T15:19:24;97262.75;;;20.28;44.26
65227;BME280;51805;49.012;12.104;2022-09-17T15:21:53;97298.72;;;20.52;44.54
65227;BME280;51805;49.012;12.104;2022-09-17T15:27:30;97321.59;;;20.64;44.79
65227;BME280;51805;49.012;12.104;2022-09-17T15:30:05;97337.94;;;20.78;45.10
65227;BME280;51805;49.012;12.104;2022-09-17T15:32:33;97330.94;;;20.77;45.01
65227;BME280;51805;49.012;12.104;2022-09-17T15:37:33;97331.06;;;20.90;44.63
65227;BME280;51805;49.012;12.104;2022-09-17T15:40:28;97277.53;;;20.69;44.27
65227;BME280;51805;49.012;12.104;2022-09-17T15:43:01;97329.06;;;21.06;44.39
65227;BME280;51805;49.012;12.104;2022-09-17T15:45:33;97302.38;;;20.99;44.62
65227;BME280;51805;49.012;12.104;2022-09-17T15:48:00;97314.38;;;21.17;44.35